createdAt,value
2018-07-23T00:00:39.527Z,98947.50
2018-07-23T00:03:08.606Z,98949.61
2018-07-23T00:05:37.697Z,98949.70
2018-07-23T00:08:06.794Z,98957.93
2018-07-23T00:10:35.902Z,98951.41
2018-07-23T00:13:05.321Z,98955.88
2018-07-23T00:15:34.431Z,98950.28
2018-07-23T00:18:03.514Z,98950.27
2018-07-23T00:20:32.629Z,98945.80
2018-07-23T00:23:01.719Z,98948.63
2018-07-23T00:25:31.149Z,98954.81
2018-07-23T00:28:00.279Z,98942.78
2018-07-23T00:30:30.138Z,98945.56
2018-07-23T00:33:01.313Z,98943.13
2018-07-23T00:35:30.517Z,98945.80
2018-07-23T00:37:59.582Z,98949.02
2018-07-23T00:40:28.630Z,98947.13
2018-07-23T00:42:57.722Z,98943.63
2018-07-23T00:45:26.810Z,98943.30
2018-07-23T00:47:56.121Z,98942.01
2018-07-23T00:50:25.214Z,98940.30
2018-07-23T00:52:54.271Z,98939.68
2018-07-23T00:55:23.386Z,98942.03
2018-07-23T00:57:52.402Z,98943.97
2018-07-23T01:00:21.485Z,98941.29
2018-07-23T01:02:50.589Z,98937.23
2018-07-23T01:05:19.701Z,98939.20
2018-07-23T01:07:48.825Z,98939.20
2018-07-23T01:10:17.908Z,98942.26
2018-07-23T01:12:46.958Z,98942.34
2018-07-23T01:15:16.081Z,98941.92
2018-07-23T01:17:45.146Z,98939.53
2018-07-23T01:20:14.249Z,98942.87
2018-07-23T01:22:43.299Z,98946.29
2018-07-23T01:25:12.381Z,98943.22
2018-07-23T01:27:41.445Z,98939.53
2018-07-23T01:30:10.481Z,98938.55
2018-07-23T01:32:39.567Z,98938.71
2018-07-23T01:35:08.644Z,98938.83
2018-07-23T01:37:37.870Z,98943.74
2018-07-23T01:40:07.005Z,98940.87
2018-07-23T01:42:36.093Z,98942.59
2018-07-23T01:45:05.192Z,98945.41
2018-07-23T01:47:34.314Z,98941.75
2018-07-23T01:50:03.401Z,98943.88
2018-07-23T01:52:32.497Z,98947.35
2018-07-23T01:55:01.612Z,98954.09
2018-07-23T01:57:31.367Z,98947.30
2018-07-23T02:00:00.458Z,98950.06
2018-07-23T02:02:29.577Z,98958.81
2018-07-23T02:04:58.627Z,98957.88
2018-07-23T02:07:27.717Z,98957.66
2018-07-23T02:09:56.834Z,98956.14
2018-07-23T02:12:25.906Z,98955.61
2018-07-23T02:14:54.950Z,98963.70
2018-07-23T02:17:24.051Z,98960.63
2018-07-23T02:19:53.109Z,98959.88
2018-07-23T02:22:22.183Z,98961.50
2018-07-23T02:24:51.254Z,98965.30
2018-07-23T02:27:20.382Z,98969.57
2018-07-23T02:29:49.434Z,98963.27
2018-07-23T02:32:18.549Z,98959.63
2018-07-23T02:34:47.642Z,98959.30
2018-07-23T02:37:17.001Z,98965.13
2018-07-23T02:39:46.426Z,98963.49
2018-07-23T02:42:15.503Z,98961.34
2018-07-23T02:44:44.592Z,98955.22
2018-07-23T02:47:13.665Z,98961.44
2018-07-23T02:49:42.734Z,98960.45
2018-07-23T02:52:11.765Z,98972.73
2018-07-23T02:54:47.215Z,98972.91
2018-07-23T02:57:16.270Z,98969.65
2018-07-23T02:59:45.576Z,98970.70
2018-07-23T03:02:14.586Z,98966.36
2018-07-23T03:04:43.642Z,98963.13
2018-07-23T03:07:12.721Z,98965.63
2018-07-23T03:09:41.796Z,98967.38
2018-07-23T03:12:10.883Z,98965.81
2018-07-23T03:14:39.957Z,98968.64
2018-07-23T03:17:09.132Z,98970.60
2018-07-23T03:19:38.225Z,98967.92
2018-07-23T03:22:07.789Z,98974.77
2018-07-23T03:24:36.909Z,98967.84
2018-07-23T03:27:05.999Z,98967.22
2018-07-23T03:29:35.098Z,98977.94
2018-07-23T03:32:04.402Z,98977.55
2018-07-23T03:34:33.523Z,98976.44
2018-07-23T03:37:02.598Z,98979.58
2018-07-23T03:39:31.709Z,98981.78
2018-07-23T03:42:00.795Z,98982.91
2018-07-23T03:44:30.018Z,98983.84
2018-07-23T03:46:59.311Z,98985.25
2018-07-23T03:49:28.621Z,98985.39
2018-07-23T03:51:57.718Z,98989.20
2018-07-23T03:54:26.786Z,98992.89
2018-07-23T03:56:55.884Z,98990.86
2018-07-23T03:59:25.477Z,98992.49
2018-07-23T04:01:54.594Z,99001.56
2018-07-23T04:04:23.664Z,99001.63
2018-07-23T04:06:52.826Z,99001.70
2018-07-23T04:09:21.867Z,99012.18
2018-07-23T04:11:50.957Z,99034.27
2018-07-23T04:14:19.990Z,98985.66
2018-07-23T04:16:49.091Z,99013.00
2018-07-23T04:19:19.018Z,99013.48
2018-07-23T04:21:48.154Z,99012.88
2018-07-23T04:24:17.281Z,99016.47
2018-07-23T04:26:46.378Z,99016.41
2018-07-23T04:29:15.423Z,99024.75
2018-07-23T04:31:44.526Z,99024.88
2018-07-23T04:34:14.765Z,99021.28
2018-07-23T04:36:43.879Z,99030.52
2018-07-23T04:39:12.947Z,99026.81
2018-07-23T04:41:42.002Z,99030.02
2018-07-23T04:44:11.064Z,99028.31
2018-07-23T04:46:40.160Z,99032.16
2018-07-23T04:49:09.578Z,99034.05
2018-07-23T04:51:38.718Z,99033.91
2018-07-23T04:54:07.774Z,99033.01
2018-07-23T04:56:36.909Z,99035.77
2018-07-23T04:59:06.967Z,99040.13
2018-07-23T05:01:36.377Z,99039.19
2018-07-23T05:04:05.573Z,99036.44
2018-07-23T05:06:34.671Z,99041.55
2018-07-23T05:09:04.644Z,99039.52
2018-07-23T05:11:33.767Z,99042.13
2018-07-23T05:14:02.846Z,99047.09
2018-07-23T05:16:31.997Z,99044.50
2018-07-23T05:19:01.265Z,99056.47
2018-07-23T05:21:30.453Z,99049.31
2018-07-23T05:23:59.763Z,99052.07
2018-07-23T05:26:35.497Z,99058.22
2018-07-23T05:29:04.590Z,99056.09
2018-07-23T05:31:34.064Z,99055.22
2018-07-23T05:34:03.153Z,99055.07
2018-07-23T05:36:32.578Z,99056.02
2018-07-23T05:39:01.707Z,99059.16
2018-07-23T05:41:30.809Z,99057.02
2018-07-23T05:44:00.000Z,99054.81
2018-07-23T05:46:29.102Z,99053.97
2018-07-23T05:48:59.572Z,99062.02
2018-07-23T05:51:28.689Z,99069.34
2018-07-23T05:53:57.933Z,99067.45
2018-07-23T05:56:27.279Z,99068.06
2018-07-23T05:58:56.386Z,99073.58
2018-07-23T06:01:26.186Z,99073.91
2018-07-23T06:03:55.287Z,99076.11
2018-07-23T06:06:26.319Z,99066.88
2018-07-23T06:08:55.429Z,99070.87
2018-07-23T06:11:24.581Z,99065.42
2018-07-23T06:13:54.125Z,99068.38
2018-07-23T06:16:23.387Z,99077.09
2018-07-23T06:18:52.672Z,99074.21
2018-07-23T06:21:21.969Z,99076.73
2018-07-23T06:23:51.159Z,99078.64
2018-07-23T06:26:20.365Z,99080.23
2018-07-23T06:28:49.485Z,99078.04
2018-07-23T06:31:20.412Z,99078.17
2018-07-23T06:33:49.508Z,99085.55
2018-07-23T06:36:18.861Z,99090.20
2018-07-23T06:38:48.324Z,99083.58
2018-07-23T06:41:17.490Z,99083.58
2018-07-23T06:43:46.701Z,99091.37
2018-07-23T06:46:15.817Z,99089.39
2018-07-23T06:48:45.016Z,99095.27
2018-07-23T06:51:14.194Z,99092.11
2018-07-23T06:53:43.489Z,99090.38
2018-07-23T06:56:12.789Z,99096.23
2018-07-23T06:58:41.870Z,99095.05
2018-07-23T07:01:10.990Z,99100.64
2018-07-23T07:03:40.715Z,99097.64
2018-07-23T07:06:09.907Z,99103.04
2018-07-23T07:08:39.320Z,99104.22
2018-07-23T07:11:09.201Z,99109.43
2018-07-23T07:13:38.579Z,99107.50
2018-07-23T07:16:07.814Z,99102.29
2018-07-23T07:18:37.617Z,99107.53
2018-07-23T07:21:07.054Z,99100.42
2018-07-23T07:23:36.737Z,99099.38
2018-07-23T07:26:06.369Z,99111.55
2018-07-23T07:28:35.449Z,99095.98
2018-07-23T07:31:04.654Z,99099.23
2018-07-23T07:33:33.752Z,99095.22
2018-07-23T07:36:02.854Z,99098.95
2018-07-23T07:38:31.951Z,99110.62
2018-07-23T07:41:01.020Z,99105.90
2018-07-23T07:43:30.121Z,99095.56
2018-07-23T07:45:59.265Z,99096.89
2018-07-23T07:48:28.701Z,99106.22
2018-07-23T07:50:57.845Z,99098.23
2018-07-23T07:53:27.022Z,99105.84
2018-07-23T07:55:56.111Z,99096.66
2018-07-23T07:58:25.292Z,99100.30
2018-07-23T08:00:54.590Z,99106.91
2018-07-23T08:03:24.221Z,99103.27
2018-07-23T08:05:53.333Z,99107.72
2018-07-23T08:08:22.504Z,99101.61
2018-07-23T08:10:51.694Z,99097.97
2018-07-23T08:13:20.896Z,99096.48
2018-07-23T08:15:50.224Z,99096.59
2018-07-23T08:18:19.399Z,99094.56
2018-07-23T08:20:49.659Z,99086.23
2018-07-23T08:23:19.830Z,99084.09
2018-07-23T08:25:49.875Z,99087.20
2018-07-23T08:28:18.976Z,99084.11
2018-07-23T08:30:48.496Z,99086.86
2018-07-23T08:33:17.964Z,99085.08
2018-07-23T08:35:47.070Z,99090.48
2018-07-23T08:38:16.473Z,99089.93
2018-07-23T08:40:46.185Z,99092.87
2018-07-23T08:43:15.583Z,99086.90
2018-07-23T08:45:44.675Z,99091.16
2018-07-23T08:48:13.858Z,99093.69
2018-07-23T08:50:43.014Z,99093.98
2018-07-23T08:53:12.192Z,99096.13
2018-07-23T08:55:41.274Z,99089.85
2018-07-23T08:58:10.649Z,99097.23
2018-07-23T09:00:39.859Z,99098.66
2018-07-23T09:03:09.444Z,99097.66
2018-07-23T09:05:38.666Z,99101.52
2018-07-23T09:08:08.006Z,99097.02
2018-07-23T09:10:37.517Z,99096.51
2018-07-23T09:13:06.757Z,99106.12
2018-07-23T09:15:35.811Z,99098.28
2018-07-23T09:18:04.949Z,99095.13
2018-07-23T09:20:34.151Z,99097.81
2018-07-23T09:23:04.174Z,99098.59
2018-07-23T09:25:38.645Z,99096.36
2018-07-23T09:28:07.754Z,99097.89
2018-07-23T09:30:42.331Z,99096.33
2018-07-23T09:33:11.493Z,99091.79
2018-07-23T09:35:41.013Z,99086.64
2018-07-23T09:38:10.133Z,99089.24
2018-07-23T09:40:39.928Z,99087.47
2018-07-23T09:43:09.098Z,99095.08
2018-07-23T09:45:38.176Z,99091.69
2018-07-23T09:48:07.286Z,99091.53
2018-07-23T09:50:36.995Z,99093.41
2018-07-23T09:53:06.116Z,99087.20
2018-07-23T09:55:35.170Z,99089.32
2018-07-23T09:58:04.306Z,99075.14
2018-07-23T10:00:38.859Z,99070.38
2018-07-23T10:03:08.144Z,99076.53
2018-07-23T10:05:37.189Z,99078.70
2018-07-23T10:08:06.317Z,99075.23
2018-07-23T10:10:35.577Z,99072.64
2018-07-23T10:13:04.715Z,99072.63
2018-07-23T10:15:33.850Z,99070.83
2018-07-23T10:18:02.966Z,99067.48
2018-07-23T10:20:32.129Z,99068.60
2018-07-23T10:23:01.209Z,99070.13
2018-07-23T10:25:30.337Z,99065.79
2018-07-23T10:27:59.438Z,99060.45
2018-07-23T10:30:28.806Z,99059.42
2018-07-23T10:32:57.890Z,99057.83
2018-07-23T10:35:26.998Z,99061.10
2018-07-23T10:37:56.687Z,99060.47
2018-07-23T10:40:25.833Z,99054.28
2018-07-23T10:42:54.910Z,99051.16
2018-07-23T10:45:24.154Z,99059.39
2018-07-23T10:47:53.347Z,99061.52
2018-07-23T10:50:22.515Z,99059.94
2018-07-23T10:52:51.689Z,99064.41
2018-07-23T10:55:20.953Z,99058.22
2018-07-23T10:57:50.066Z,99053.34
2018-07-23T11:00:19.185Z,99050.42
2018-07-23T11:02:48.518Z,99055.87
2018-07-23T11:05:17.779Z,99051.51
2018-07-23T11:07:46.957Z,99051.34
2018-07-23T11:10:16.355Z,99055.16
2018-07-23T11:12:45.474Z,99051.36
2018-07-23T11:15:14.602Z,99052.70
2018-07-23T11:17:43.875Z,99048.12
2018-07-23T11:20:13.255Z,99051.12
2018-07-23T11:22:42.465Z,99052.25
2018-07-23T11:25:38.594Z,99049.92
2018-07-23T11:27:40.815Z,99048.59
2018-07-23T11:30:09.926Z,99040.82
2018-07-23T11:32:39.073Z,99044.55
2018-07-23T11:35:08.342Z,99039.39
2018-07-23T11:37:37.580Z,99033.36
2018-07-23T11:40:06.674Z,99040.45
2018-07-23T11:42:35.972Z,99034.79
2018-07-23T11:45:06.025Z,99026.34
2018-07-23T11:47:35.605Z,99029.52
2018-07-23T11:50:04.957Z,99030.92
2018-07-23T11:52:34.250Z,99025.81
2018-07-23T11:55:03.520Z,99033.73
2018-07-23T11:57:32.687Z,99031.25
2018-07-23T12:00:02.017Z,99026.60
2018-07-23T12:02:31.212Z,99033.37
2018-07-23T12:05:00.491Z,99033.59
2018-07-23T12:07:29.739Z,99027.45
2018-07-23T12:09:59.079Z,99024.45
2018-07-23T12:12:28.351Z,99026.81
2018-07-23T12:14:57.405Z,99026.30
2018-07-23T12:17:26.866Z,99027.39
2018-07-23T12:19:56.151Z,99027.42
2018-07-23T12:22:25.327Z,99024.25
2018-07-23T12:24:54.880Z,99027.92
2018-07-23T12:27:25.421Z,99023.52
2018-07-23T12:29:54.623Z,99023.52
2018-07-23T12:32:24.298Z,99017.84
2018-07-23T12:34:53.570Z,99018.05
2018-07-23T12:37:22.688Z,99016.41
2018-07-23T12:39:51.964Z,99010.98
2018-07-23T12:42:20.964Z,99016.28
2018-07-23T12:44:50.050Z,99011.80
2018-07-23T12:47:19.296Z,98619.77
2018-07-23T12:49:48.417Z,99007.11
2018-07-23T12:52:17.655Z,99009.22
2018-07-23T12:54:46.855Z,99001.52
2018-07-23T12:57:15.990Z,99003.70
2018-07-23T12:59:45.264Z,98999.50
2018-07-23T13:02:14.317Z,99002.78
2018-07-23T13:04:43.400Z,99006.50
2018-07-23T13:07:12.660Z,99002.72
2018-07-23T13:09:41.765Z,99000.52
2018-07-23T13:12:10.878Z,99000.38
2018-07-23T13:14:40.049Z,98996.28
2018-07-23T13:17:09.136Z,99001.63
2018-07-23T13:19:38.245Z,98995.35
2018-07-23T13:22:07.419Z,98996.71
2018-07-23T13:24:36.630Z,98997.18
2018-07-23T13:27:05.811Z,98997.03
2018-07-23T13:29:34.941Z,98997.91
2018-07-23T13:32:04.087Z,99000.94
2018-07-23T13:34:33.127Z,98989.44
2018-07-23T13:37:02.266Z,98985.55
2018-07-23T13:39:31.443Z,98987.28
2018-07-23T13:42:00.610Z,98981.03
2018-07-23T13:44:29.754Z,98972.06
2018-07-23T13:46:58.931Z,98988.34
2018-07-23T13:49:29.042Z,98986.52
2018-07-23T13:51:58.714Z,98981.59
2018-07-23T13:54:27.878Z,98977.20
2018-07-23T13:56:57.054Z,98982.82
2018-07-23T13:59:30.220Z,98984.70
2018-07-23T14:02:00.062Z,98980.64
2018-07-23T14:04:29.130Z,98975.75
2018-07-23T14:06:58.372Z,98977.98
2018-07-23T14:09:27.655Z,98975.44
2018-07-23T14:11:56.829Z,98968.34
2018-07-23T14:14:26.158Z,98974.77
2018-07-23T14:16:55.380Z,98969.33
2018-07-23T14:19:24.521Z,98967.09
2018-07-23T14:21:54.042Z,98971.44
2018-07-23T14:24:23.250Z,98963.61
2018-07-23T14:26:52.320Z,98968.61
2018-07-23T14:29:21.631Z,98960.22
2018-07-23T14:31:50.765Z,98960.31
2018-07-23T14:34:20.588Z,98959.95
2018-07-23T14:36:49.937Z,98957.11
2018-07-23T14:39:19.138Z,98955.42
2018-07-23T14:41:48.282Z,98952.05
2018-07-23T14:44:17.442Z,98953.27
2018-07-23T14:46:46.682Z,98948.64
2018-07-23T14:49:15.886Z,98951.88
2018-07-23T14:51:45.042Z,98944.91
2018-07-23T14:54:14.242Z,98942.17
2018-07-23T14:56:43.425Z,98938.92
2018-07-23T14:59:12.603Z,98945.75
2018-07-23T15:01:41.735Z,98896.37
2018-07-23T15:04:16.776Z,98944.08
2018-07-23T15:06:46.242Z,98943.32
2018-07-23T15:09:15.391Z,98941.33
2018-07-23T15:11:44.562Z,98938.18
2018-07-23T15:14:14.390Z,98932.80
2018-07-23T15:16:43.492Z,98937.78
2018-07-23T15:19:12.582Z,98937.64
2018-07-23T15:21:41.765Z,98932.59
2018-07-23T15:24:10.846Z,98940.23
2018-07-23T15:26:40.107Z,98941.70
2018-07-23T15:29:09.170Z,98932.13
2018-07-23T15:31:38.285Z,98932.72
2018-07-23T15:34:07.389Z,98935.73
2018-07-23T15:36:37.430Z,98930.87
2018-07-23T15:39:08.710Z,98931.77
2018-07-23T15:41:38.219Z,98930.48
2018-07-23T15:44:07.796Z,98929.31
2018-07-23T15:46:36.911Z,98922.80
2018-07-23T15:49:06.005Z,98926.91
2018-07-23T15:51:35.220Z,98929.52
2018-07-23T15:54:04.326Z,98928.77
2018-07-23T15:56:33.406Z,98921.55
2018-07-23T15:59:02.546Z,98922.03
2018-07-23T16:01:31.672Z,98923.02
2018-07-23T16:04:00.801Z,98920.20
2018-07-23T16:06:29.909Z,98912.95
2018-07-23T16:08:58.991Z,98919.74
2018-07-23T16:11:29.087Z,98916.48
2018-07-23T16:13:58.165Z,98921.37
2018-07-23T16:16:27.366Z,98912.31
2018-07-23T16:18:56.405Z,98918.34
2018-07-23T16:21:25.490Z,98909.61
2018-07-23T16:23:54.629Z,98917.41
2018-07-23T16:26:23.752Z,98913.73
2018-07-23T16:28:53.206Z,98914.30
2018-07-23T16:31:22.618Z,98919.80
2018-07-23T16:33:51.926Z,98918.04
2018-07-23T16:36:21.137Z,98908.67
2018-07-23T16:38:50.295Z,98913.17
2018-07-23T16:41:19.398Z,98903.83
2018-07-23T16:43:48.482Z,98903.92
2018-07-23T16:46:17.593Z,98905.09
2018-07-23T16:48:46.685Z,98908.59
2018-07-23T16:51:15.818Z,98910.15
2018-07-23T16:53:44.842Z,98909.19
2018-07-23T16:56:13.916Z,98914.23
2018-07-23T16:58:47.181Z,98910.95
2018-07-23T17:01:16.273Z,98905.88
2018-07-23T17:03:45.454Z,98911.72
2018-07-23T17:06:14.523Z,98907.03
2018-07-23T17:08:43.649Z,98906.02
2018-07-23T17:11:12.810Z,98902.98
2018-07-23T17:13:42.792Z,98902.32
2018-07-23T17:16:12.311Z,98906.79
2018-07-23T17:18:41.642Z,98913.23
2018-07-23T17:21:11.022Z,98912.58
2018-07-23T17:23:40.117Z,98911.07
2018-07-23T17:26:09.198Z,98912.28
2018-07-23T17:28:38.348Z,98910.94
2018-07-23T17:31:07.737Z,98916.03
2018-07-23T17:33:37.336Z,98907.83
2018-07-23T17:36:06.466Z,98890.91
2018-07-23T17:38:35.603Z,98915.23
2018-07-23T17:41:04.698Z,98917.00
2018-07-23T17:43:33.760Z,98916.02
2018-07-23T17:46:02.923Z,98913.63
2018-07-23T17:48:32.779Z,98914.78
2018-07-23T17:51:01.868Z,98828.09
2018-07-23T17:53:30.987Z,98912.23
2018-07-23T17:56:00.160Z,98914.36
2018-07-23T17:58:29.845Z,98909.14
2018-07-23T18:00:58.987Z,98911.47
2018-07-23T18:03:29.241Z,98913.02
2018-07-23T18:05:58.404Z,98912.02
2018-07-23T18:08:27.567Z,98910.66
2018-07-23T18:10:56.656Z,98911.36
2018-07-23T18:13:25.819Z,98912.33
2018-07-23T18:15:54.868Z,98916.27
2018-07-23T18:18:23.932Z,98916.59
2018-07-23T18:20:53.543Z,98917.56
2018-07-23T18:23:22.697Z,98915.80
2018-07-23T18:25:51.850Z,98926.55
2018-07-23T18:28:21.172Z,98920.82
2018-07-23T18:30:50.409Z,98920.49
2018-07-23T18:33:19.555Z,98922.79
2018-07-23T18:35:48.914Z,98917.31
2018-07-23T18:38:18.200Z,98916.88
2018-07-23T18:40:47.199Z,98918.02
2018-07-23T18:43:16.549Z,98928.72
2018-07-23T18:45:45.639Z,98922.67
2018-07-23T18:48:28.897Z,98928.32
2018-07-23T18:50:57.971Z,98927.36
2018-07-23T18:53:27.122Z,98927.14
2018-07-23T18:55:56.258Z,98932.09
2018-07-23T18:58:25.402Z,98928.98
2018-07-23T19:00:54.450Z,98930.34
2018-07-23T19:03:23.553Z,98926.04
2018-07-23T19:05:52.669Z,98936.74
2018-07-23T19:08:22.183Z,98934.11
2018-07-23T19:10:51.329Z,98935.55
2018-07-23T19:13:20.441Z,98946.71
2018-07-23T19:15:49.523Z,98944.97
2018-07-23T19:18:18.598Z,98951.98
2018-07-23T19:20:47.715Z,98949.43
2018-07-23T19:23:17.012Z,98951.34
2018-07-23T19:25:46.423Z,98954.17
2018-07-23T19:28:15.487Z,98960.94
2018-07-23T19:30:44.624Z,98960.23
2018-07-23T19:33:13.769Z,98961.42
2018-07-23T19:35:43.045Z,98961.55
2018-07-23T19:38:12.107Z,98963.55
2018-07-23T19:40:41.282Z,98977.04
2018-07-23T19:43:10.418Z,98973.92
2018-07-23T19:45:39.539Z,98973.64
2018-07-23T19:48:08.722Z,98982.53
2018-07-23T19:50:37.792Z,98970.96
2018-07-23T19:53:06.924Z,98984.59
2018-07-23T19:55:36.021Z,98980.20
2018-07-23T19:58:05.067Z,98987.30
2018-07-23T20:00:34.716Z,98983.06
2018-07-23T20:03:03.867Z,98978.47
2018-07-23T20:05:32.965Z,98974.25
2018-07-23T20:08:02.079Z,98980.28
2018-07-23T20:10:31.236Z,98979.52
2018-07-23T20:13:00.442Z,98978.00
2018-07-23T20:15:29.505Z,98979.16
2018-07-23T20:17:58.693Z,98981.22
2018-07-23T20:20:27.898Z,98981.36
2018-07-23T20:22:56.974Z,98987.42
2018-07-23T20:25:26.124Z,98984.66
2018-07-23T20:27:55.326Z,98987.52
2018-07-23T20:30:24.348Z,98986.83
2018-07-23T20:32:53.567Z,98982.80
2018-07-23T20:35:22.635Z,98983.36
2018-07-23T20:37:51.793Z,98986.20
2018-07-23T20:40:20.876Z,98982.71
2018-07-23T20:42:49.977Z,98978.96
2018-07-23T20:45:19.149Z,98976.53
2018-07-23T20:47:48.294Z,98985.27
2018-07-23T20:50:17.612Z,98988.19
2018-07-23T20:52:46.694Z,98984.27
2018-07-23T20:55:16.023Z,98988.32
2018-07-23T20:57:45.239Z,98987.96
2018-07-23T21:00:14.316Z,98986.25
2018-07-23T21:02:43.442Z,98984.22
2018-07-23T21:05:12.508Z,98977.98
2018-07-23T21:07:41.737Z,98979.96
2018-07-23T21:10:10.785Z,98982.46
2018-07-23T21:12:40.032Z,98989.83
2018-07-23T21:15:09.532Z,98984.98
2018-07-23T21:17:38.761Z,98983.76
2018-07-23T21:20:08.905Z,98982.41
2018-07-23T21:22:38.372Z,98988.08
2018-07-23T21:25:07.728Z,98988.02
2018-07-23T21:27:36.812Z,98984.69
2018-07-23T21:30:06.870Z,98980.72
2018-07-23T21:32:35.992Z,98979.84
2018-07-23T21:35:05.630Z,98982.23
2018-07-23T21:37:34.748Z,98985.84
2018-07-23T21:40:04.001Z,98985.94
2018-07-23T21:42:39.799Z,98991.14
2018-07-23T21:45:10.488Z,98985.70
2018-07-23T21:47:39.551Z,98986.92
2018-07-23T21:50:09.165Z,98988.28
2018-07-23T21:52:38.893Z,98985.63
2018-07-23T21:55:08.806Z,98985.34
2018-07-23T21:57:37.996Z,98983.12
2018-07-23T22:00:10.323Z,98982.34
2018-07-23T22:02:39.530Z,98983.00
2018-07-23T22:05:09.091Z,98982.81
2018-07-23T22:07:38.707Z,98982.96
2018-07-23T22:10:09.062Z,98992.77
2018-07-23T22:12:38.538Z,98991.42
2018-07-23T22:15:09.551Z,98986.15
2018-07-23T22:17:38.715Z,98991.31
2018-07-23T22:20:08.589Z,98992.02
2018-07-23T22:22:37.700Z,98989.95
2018-07-23T22:25:06.860Z,98992.02
2018-07-23T22:27:36.772Z,98987.87
2018-07-23T22:30:06.483Z,98991.91
2018-07-23T22:32:35.541Z,98991.61
2018-07-23T22:35:04.605Z,98986.56
2018-07-23T22:37:33.682Z,98987.45
2018-07-23T22:40:03.513Z,98990.70
2018-07-23T22:42:34.312Z,98988.34
2018-07-23T22:45:03.387Z,98985.47
2018-07-23T22:47:32.438Z,98988.73
2018-07-23T22:50:01.473Z,98988.16
2018-07-23T22:52:30.537Z,98987.59
2018-07-23T22:54:59.613Z,98984.80
2018-07-23T22:57:28.708Z,98986.70
2018-07-23T22:59:57.800Z,98981.19
2018-07-23T23:02:26.914Z,98983.57
2018-07-23T23:04:55.984Z,98986.27
2018-07-23T23:07:25.126Z,98980.64
2018-07-23T23:09:54.696Z,98983.91
2018-07-23T23:12:23.930Z,98982.24
2018-07-23T23:14:52.988Z,98977.63
2018-07-23T23:17:22.087Z,98978.84
2018-07-23T23:19:51.133Z,98976.73
2018-07-23T23:22:20.235Z,98972.22
2018-07-23T23:24:49.348Z,98976.22
2018-07-23T23:27:18.503Z,98972.43
2018-07-23T23:29:47.544Z,98970.33
2018-07-23T23:32:16.614Z,98973.53
2018-07-23T23:34:45.693Z,98969.95
2018-07-23T23:37:14.774Z,98974.36
2018-07-23T23:39:43.860Z,98976.33
2018-07-23T23:42:12.896Z,98977.22
2018-07-23T23:44:42.005Z,98977.77
2018-07-23T23:47:11.383Z,98981.70
2018-07-23T23:49:40.612Z,98978.45
2018-07-23T23:52:09.689Z,98982.91
2018-07-23T23:54:38.749Z,98980.00
2018-07-23T23:57:07.901Z,98981.91
2018-07-23T23:59:37.013Z,98965.67
